createdAt,value
2023-01-15T00:04:32.175Z,99498.84
2023-01-15T00:14:33.682Z,99487.88
2023-01-15T00:24:53.690Z,99492.22
2023-01-15T00:34:55.730Z,99494.06
2023-01-15T00:44:57.201Z,99476.09
2023-01-15T00:54:59.090Z,99461.63
2023-01-15T01:05:00.457Z,99475.28
2023-01-15T01:15:02.029Z,99487.34
2023-01-15T01:25:03.692Z,99517.38
2023-01-15T01:35:05.633Z,99506.25
2023-01-15T01:45:11.811Z,99520.06
2023-01-15T01:55:15.201Z,99511.47
2023-01-15T02:05:28.040Z,99505.47
2023-01-15T02:15:37.728Z,99527.81
2023-01-15T02:26:21.196Z,99494.47
2023-01-15T02:36:25.013Z,99508.13
2023-01-15T02:46:31.615Z,99510.72
2023-01-15T02:56:36.023Z,99496.19
2023-01-15T03:06:43.983Z,99489.34
2023-01-15T03:16:48.080Z,99461.13
2023-01-15T03:26:49.610Z,99464.47
2023-01-15T03:36:52.281Z,99458.50
2023-01-15T03:47:21.469Z,99455.09
2023-01-15T03:58:12.432Z,99458.56
2023-01-15T04:08:17.817Z,99462.84
2023-01-15T04:18:20.357Z,99463.72
2023-01-15T04:28:21.715Z,99462.00
2023-01-15T04:38:23.050Z,99475.69
2023-01-15T04:48:25.239Z,99470.59
2023-01-15T04:58:26.624Z,99461.16
2023-01-15T05:08:28.426Z,99465.44
2023-01-15T05:18:29.804Z,99465.41
2023-01-15T05:28:31.393Z,99453.44
2023-01-15T05:38:33.699Z,99466.28
2023-01-15T05:48:35.233Z,99445.72
2023-01-15T05:58:37.240Z,99457.72
2023-01-15T06:08:38.719Z,99469.72
2023-01-15T06:18:41.015Z,99478.25
2023-01-15T06:28:43.396Z,99467.16
2023-01-15T06:38:45.231Z,99481.72
2023-01-15T06:48:47.532Z,99494.53
2023-01-15T06:58:48.955Z,99474.00
2023-01-15T07:08:50.495Z,99473.97
2023-01-15T07:18:52.149Z,99468.84
2023-01-15T07:28:54.479Z,99475.72
2023-01-15T07:38:56.348Z,99521.13
2023-01-15T07:49:16.213Z,99514.31
2023-01-15T07:59:17.579Z,99501.47
2023-01-15T08:09:19.045Z,99527.16
2023-01-15T08:19:20.673Z,99538.31
2023-01-15T08:29:22.517Z,99547.72
2023-01-15T08:39:23.936Z,99557.16
2023-01-15T08:49:25.448Z,99553.75
2023-01-15T08:59:27.449Z,99566.63
2023-01-15T09:09:28.937Z,99591.47
2023-01-15T09:19:30.539Z,99582.91
2023-01-15T09:29:32.045Z,99556.34
2023-01-15T09:39:33.482Z,99556.38
2023-01-15T09:49:40.849Z,99565.75
2023-01-15T09:59:49.176Z,99581.16
2023-01-15T10:10:00.570Z,99581.97
2023-01-15T10:20:02.622Z,99574.22
2023-01-15T10:30:42.999Z,99581.00
2023-01-15T10:40:53.378Z,99587.81
2023-01-15T10:50:56.246Z,99593.75
2023-01-15T11:01:03.233Z,99595.44
2023-01-15T11:12:03.388Z,99606.56
2023-01-15T11:22:09.524Z,99593.63
2023-01-15T11:32:38.371Z,99592.75
2023-01-15T11:43:05.225Z,99608.19
2023-01-15T11:53:14.612Z,99605.63
2023-01-15T12:03:21.324Z,99594.47
2023-01-15T12:13:44.085Z,99593.59
2023-01-15T12:24:21.525Z,99603.03
2023-01-15T12:34:24.327Z,99597.00
2023-01-15T12:45:00.985Z,99597.78
2023-01-15T12:55:26.965Z,99602.94
2023-01-15T13:05:38.769Z,99579.75
2023-01-15T13:16:02.909Z,99593.53
2023-01-15T13:26:16.282Z,99591.84
2023-01-15T13:36:29.872Z,99581.53
2023-01-15T13:46:31.844Z,99599.56
2023-01-15T13:56:36.645Z,99603.00
2023-01-15T14:06:43.866Z,99608.13
2023-01-15T14:17:22.748Z,99613.22
2023-01-15T14:27:38.839Z,99623.53
2023-01-15T14:37:55.385Z,99633.84
2023-01-15T14:48:00.715Z,99631.25
2023-01-15T14:58:05.383Z,99647.56
2023-01-15T15:08:13.251Z,99649.28
2023-01-15T15:18:34.729Z,99665.59
2023-01-15T15:28:36.192Z,99659.59
2023-01-15T15:38:41.621Z,99655.34
2023-01-15T15:48:46.141Z,99653.66
2023-01-15T15:58:47.648Z,99669.97
2023-01-15T16:08:54.860Z,99675.09
2023-01-15T16:18:59.408Z,99691.34
2023-01-15T16:29:04.690Z,99681.13
2023-01-15T16:39:07.676Z,99696.56
2023-01-15T16:49:24.154Z,99693.97
2023-01-15T16:59:25.489Z,99694.84
2023-01-15T17:09:28.586Z,99695.72
2023-01-15T17:19:30.293Z,99718.00
2023-01-15T17:29:31.797Z,99705.16
2023-01-15T17:39:33.305Z,99694.84
2023-01-15T17:49:35.181Z,99688.88
2023-01-15T17:59:54.951Z,99692.28
2023-01-15T18:09:57.404Z,99699.16
2023-01-15T18:19:58.866Z,99689.72
2023-01-15T18:30:00.274Z,99683.75
2023-01-15T18:40:01.806Z,99687.19
2023-01-15T18:50:03.279Z,99694.91
2023-01-15T19:00:05.256Z,99698.31
2023-01-15T19:10:07.230Z,99700.06
2023-01-15T19:20:10.950Z,99693.19
2023-01-15T19:30:12.593Z,99678.69
2023-01-15T19:40:22.928Z,99664.09
2023-01-15T19:50:45.955Z,99660.69
2023-01-15T20:00:48.612Z,99655.56
2023-01-15T20:10:50.912Z,99648.72
2023-01-15T20:20:54.840Z,99630.72
2023-01-15T20:30:57.478Z,99601.63
2023-01-15T20:41:21.495Z,99585.41
2023-01-15T20:51:23.152Z,99570.00
2023-01-15T21:01:26.773Z,99549.47
2023-01-15T21:11:28.406Z,99537.47
2023-01-15T21:21:29.982Z,99531.47
2023-01-15T21:31:31.481Z,99511.72
2023-01-15T21:41:51.644Z,99501.44
2023-01-15T21:51:53.289Z,99495.50
2023-01-15T22:01:56.773Z,99471.59
2023-01-15T22:11:58.306Z,99460.50
2023-01-15T22:22:08.716Z,99451.13
2023-01-15T22:32:13.069Z,99422.06
2023-01-15T22:42:27.617Z,99412.72
2023-01-15T22:52:29.360Z,99383.56
2023-01-15T23:02:49.517Z,99365.59
2023-01-15T23:12:50.902Z,99347.63
2023-01-15T23:22:52.260Z,99330.53
2023-01-15T23:32:53.593Z,99306.56
2023-01-15T23:43:13.528Z,99298.88
2023-01-15T23:53:14.979Z,99275.84
